sensor_id;sensor_type;location;lat;lon;timestamp;P1;durP1;ratioP1;P2;durP2;ratioP2
23236;SDS011;11787;52.018;8.570;2022-12-18T00:01:00;41.85;;;23.48;;
23236;SDS011;11787;52.018;8.570;2022-12-18T00:03:31;43.75;;;24.48;;
23236;SDS011;11787;52.018;8.570;2022-12-18T00:06:01;43.38;;;23.85;;
23236;SDS011;11787;52.018;8.570;2022-12-18T00:08:26;41.97;;;23.98;;
23236;SDS011;11787;52.018;8.570;2022-12-18T00:10:53;41.72;;;23.50;;
23236;SDS011;11787;52.018;8.570;2022-12-18T00:13:18;41.53;;;23.30;;
23236;SDS011;11787;52.018;8.570;2022-12-18T00:15:44;41.05;;;23.95;;
23236;SDS011;11787;52.018;8.570;2022-12-18T00:18:09;41.47;;;24.13;;
23236;SDS011;11787;52.018;8.570;2022-12-18T00:20:36;38.75;;;21.85;;
23236;SDS011;11787;52.018;8.570;2022-12-18T00:23:05;40.58;;;23.33;;
23236;SDS011;11787;52.018;8.570;2022-12-18T00:25:33;44.63;;;24.05;;
23236;SDS011;11787;52.018;8.570;2022-12-18T00:27:59;43.75;;;24.38;;
23236;SDS011;11787;52.018;8.570;2022-12-18T00:30:25;42.38;;;23.90;;
23236;SDS011;11787;52.018;8.570;2022-12-18T00:36:15;39.75;;;22.52;;
23236;SDS011;11787;52.018;8.570;2022-12-18T00:38:45;41.00;;;23.52;;
23236;SDS011;11787;52.018;8.570;2022-12-18T00:41:12;41.40;;;23.10;;
23236;SDS011;11787;52.018;8.570;2022-12-18T00:43:59;43.75;;;23.00;;
23236;SDS011;11787;52.018;8.570;2022-12-18T00:46:25;42.50;;;24.10;;
23236;SDS011;11787;52.018;8.570;2022-12-18T00:48:50;43.28;;;22.70;;
23236;SDS011;11787;52.018;8.570;2022-12-18T00:51:16;37.38;;;21.73;;
23236;SDS011;11787;52.018;8.570;2022-12-18T00:53:42;37.60;;;22.45;;
23236;SDS011;11787;52.018;8.570;2022-12-18T00:56:07;42.63;;;22.50;;
23236;SDS011;11787;52.018;8.570;2022-12-18T01:01:55;37.42;;;22.45;;
23236;SDS011;11787;52.018;8.570;2022-12-18T01:04:20;38.80;;;22.70;;
23236;SDS011;11787;52.018;8.570;2022-12-18T01:10:09;39.47;;;21.80;;
23236;SDS011;11787;52.018;8.570;2022-12-18T01:12:37;38.38;;;20.83;;
23236;SDS011;11787;52.018;8.570;2022-12-18T01:15:03;39.92;;;22.10;;
23236;SDS011;11787;52.018;8.570;2022-12-18T01:17:30;35.15;;;22.80;;
23236;SDS011;11787;52.018;8.570;2022-12-18T01:19:55;37.25;;;21.90;;
23236;SDS011;11787;52.018;8.570;2022-12-18T01:22:21;39.95;;;22.17;;
23236;SDS011;11787;52.018;8.570;2022-12-18T01:28:08;38.70;;;22.17;;
23236;SDS011;11787;52.018;8.570;2022-12-18T01:30:34;42.30;;;22.52;;
23236;SDS011;11787;52.018;8.570;2022-12-18T01:33:00;38.40;;;21.90;;
23236;SDS011;11787;52.018;8.570;2022-12-18T01:35:25;36.10;;;20.88;;
23236;SDS011;11787;52.018;8.570;2022-12-18T01:41:14;37.97;;;21.50;;
23236;SDS011;11787;52.018;8.570;2022-12-18T01:43:45;31.95;;;19.30;;
23236;SDS011;11787;52.018;8.570;2022-12-18T01:46:14;33.58;;;19.95;;
23236;SDS011;11787;52.018;8.570;2022-12-18T01:48:40;33.97;;;19.95;;
23236;SDS011;11787;52.018;8.570;2022-12-18T01:51:08;35.75;;;19.90;;
23236;SDS011;11787;52.018;8.570;2022-12-18T01:53:36;37.78;;;19.77;;
23236;SDS011;11787;52.018;8.570;2022-12-18T01:56:03;33.30;;;19.77;;
23236;SDS011;11787;52.018;8.570;2022-12-18T01:58:38;34.20;;;18.48;;
23236;SDS011;11787;52.018;8.570;2022-12-18T02:01:08;33.78;;;19.63;;
23236;SDS011;11787;52.018;8.570;2022-12-18T02:03:34;33.95;;;19.25;;
23236;SDS011;11787;52.018;8.570;2022-12-18T02:06:12;32.80;;;18.27;;
23236;SDS011;11787;52.018;8.570;2022-12-18T02:14:28;31.52;;;18.13;;
23236;SDS011;11787;52.018;8.570;2022-12-18T02:17:39;34.25;;;18.92;;
23236;SDS011;11787;52.018;8.570;2022-12-18T02:20:05;33.88;;;18.65;;
23236;SDS011;11787;52.018;8.570;2022-12-18T02:22:53;32.08;;;17.40;;
23236;SDS011;11787;52.018;8.570;2022-12-18T02:28:27;32.10;;;18.75;;
23236;SDS011;11787;52.018;8.570;2022-12-18T02:30:57;30.75;;;17.27;;
23236;SDS011;11787;52.018;8.570;2022-12-18T02:33:26;30.10;;;16.65;;
23236;SDS011;11787;52.018;8.570;2022-12-18T02:35:53;32.67;;;17.65;;
23236;SDS011;11787;52.018;8.570;2022-12-18T02:41:43;28.48;;;15.98;;
23236;SDS011;11787;52.018;8.570;2022-12-18T02:44:10;29.67;;;16.80;;
23236;SDS011;11787;52.018;8.570;2022-12-18T02:46:38;29.08;;;17.20;;
23236;SDS011;11787;52.018;8.570;2022-12-18T02:54:18;28.45;;;16.35;;
23236;SDS011;11787;52.018;8.570;2022-12-18T02:57:55;31.52;;;16.15;;
23236;SDS011;11787;52.018;8.570;2022-12-18T03:06:25;26.50;;;15.27;;
23236;SDS011;11787;52.018;8.570;2022-12-18T03:08:48;25.25;;;15.85;;
23236;SDS011;11787;52.018;8.570;2022-12-18T03:11:19;28.50;;;15.57;;
23236;SDS011;11787;52.018;8.570;2022-12-18T03:14:05;27.55;;;15.85;;
23236;SDS011;11787;52.018;8.570;2022-12-18T03:16:32;26.50;;;15.55;;
23236;SDS011;11787;52.018;8.570;2022-12-18T03:19:01;28.48;;;15.48;;
23236;SDS011;11787;52.018;8.570;2022-12-18T03:21:43;27.83;;;16.05;;
23236;SDS011;11787;52.018;8.570;2022-12-18T03:24:15;28.30;;;15.52;;
23236;SDS011;11787;52.018;8.570;2022-12-18T03:26:44;30.83;;;16.10;;
23236;SDS011;11787;52.018;8.570;2022-12-18T03:29:14;28.17;;;15.23;;
23236;SDS011;11787;52.018;8.570;2022-12-18T03:31:51;25.42;;;15.18;;
23236;SDS011;11787;52.018;8.570;2022-12-18T03:34:26;24.88;;;14.63;;
23236;SDS011;11787;52.018;8.570;2022-12-18T03:36:57;30.40;;;15.65;;
23236;SDS011;11787;52.018;8.570;2022-12-18T03:39:23;32.13;;;15.80;;
23236;SDS011;11787;52.018;8.570;2022-12-18T03:44:26;29.30;;;15.48;;
23236;SDS011;11787;52.018;8.570;2022-12-18T03:47:05;30.23;;;15.25;;
23236;SDS011;11787;52.018;8.570;2022-12-18T03:52:27;31.52;;;15.30;;
23236;SDS011;11787;52.018;8.570;2022-12-18T03:55:05;23.67;;;13.93;;
23236;SDS011;11787;52.018;8.570;2022-12-18T03:57:33;27.17;;;15.55;;
23236;SDS011;11787;52.018;8.570;2022-12-18T04:00:04;33.90;;;15.50;;
23236;SDS011;11787;52.018;8.570;2022-12-18T04:02:33;25.38;;;14.38;;
23236;SDS011;11787;52.018;8.570;2022-12-18T04:05:01;28.73;;;15.80;;
23236;SDS011;11787;52.018;8.570;2022-12-18T04:07:30;30.52;;;15.35;;
23236;SDS011;11787;52.018;8.570;2022-12-18T04:09:57;28.88;;;16.35;;
23236;SDS011;11787;52.018;8.570;2022-12-18T04:12:26;25.08;;;14.80;;
23236;SDS011;11787;52.018;8.570;2022-12-18T04:14:53;29.90;;;16.52;;
23236;SDS011;11787;52.018;8.570;2022-12-18T04:17:20;25.23;;;14.63;;
23236;SDS011;11787;52.018;8.570;2022-12-18T04:19:45;27.80;;;15.02;;
23236;SDS011;11787;52.018;8.570;2022-12-18T04:22:11;27.35;;;15.20;;
23236;SDS011;11787;52.018;8.570;2022-12-18T04:24:37;25.60;;;13.98;;
23236;SDS011;11787;52.018;8.570;2022-12-18T04:27:03;25.83;;;14.13;;
23236;SDS011;11787;52.018;8.570;2022-12-18T04:29:28;26.13;;;14.75;;
23236;SDS011;11787;52.018;8.570;2022-12-18T04:31:54;25.80;;;14.35;;
23236;SDS011;11787;52.018;8.570;2022-12-18T04:34:20;24.25;;;14.18;;
23236;SDS011;11787;52.018;8.570;2022-12-18T04:36:46;29.73;;;13.82;;
23236;SDS011;11787;52.018;8.570;2022-12-18T04:39:12;28.08;;;14.70;;
23236;SDS011;11787;52.018;8.570;2022-12-18T04:41:37;27.52;;;14.43;;
23236;SDS011;11787;52.018;8.570;2022-12-18T04:44:03;29.48;;;15.13;;
23236;SDS011;11787;52.018;8.570;2022-12-18T04:46:29;25.85;;;14.65;;
23236;SDS011;11787;52.018;8.570;2022-12-18T04:48:55;26.83;;;14.10;;
23236;SDS011;11787;52.018;8.570;2022-12-18T04:51:20;26.23;;;14.15;;
23236;SDS011;11787;52.018;8.570;2022-12-18T04:53:46;25.40;;;13.75;;
23236;SDS011;11787;52.018;8.570;2022-12-18T04:56:13;25.85;;;14.35;;
23236;SDS011;11787;52.018;8.570;2022-12-18T04:58:40;26.23;;;14.40;;
23236;SDS011;11787;52.018;8.570;2022-12-18T05:01:06;27.73;;;14.38;;
23236;SDS011;11787;52.018;8.570;2022-12-18T05:03:33;24.10;;;14.07;;
23236;SDS011;11787;52.018;8.570;2022-12-18T05:05:59;27.27;;;15.77;;
23236;SDS011;11787;52.018;8.570;2022-12-18T05:08:25;30.13;;;15.25;;
23236;SDS011;11787;52.018;8.570;2022-12-18T05:11:04;25.80;;;14.18;;
23236;SDS011;11787;52.018;8.570;2022-12-18T05:13:32;28.42;;;14.68;;
23236;SDS011;11787;52.018;8.570;2022-12-18T05:15:58;21.73;;;13.23;;
23236;SDS011;11787;52.018;8.570;2022-12-18T05:18:24;25.48;;;14.48;;
23236;SDS011;11787;52.018;8.570;2022-12-18T05:20:51;26.13;;;13.57;;
23236;SDS011;11787;52.018;8.570;2022-12-18T05:23:16;26.05;;;13.68;;
23236;SDS011;11787;52.018;8.570;2022-12-18T05:25:42;27.05;;;14.52;;
23236;SDS011;11787;52.018;8.570;2022-12-18T05:28:22;26.13;;;14.02;;
23236;SDS011;11787;52.018;8.570;2022-12-18T05:30:53;24.23;;;13.20;;
23236;SDS011;11787;52.018;8.570;2022-12-18T05:33:21;24.02;;;13.23;;
23236;SDS011;11787;52.018;8.570;2022-12-18T05:35:51;26.23;;;13.95;;
23236;SDS011;11787;52.018;8.570;2022-12-18T05:38:19;29.02;;;15.05;;
23236;SDS011;11787;52.018;8.570;2022-12-18T05:40:45;26.17;;;13.63;;
23236;SDS011;11787;52.018;8.570;2022-12-18T05:43:11;28.75;;;14.38;;
23236;SDS011;11787;52.018;8.570;2022-12-18T05:45:37;24.90;;;12.77;;
23236;SDS011;11787;52.018;8.570;2022-12-18T05:48:03;23.10;;;12.57;;
23236;SDS011;11787;52.018;8.570;2022-12-18T05:50:30;24.98;;;12.68;;
23236;SDS011;11787;52.018;8.570;2022-12-18T05:52:55;23.63;;;12.88;;
23236;SDS011;11787;52.018;8.570;2022-12-18T05:55:21;25.63;;;14.40;;
23236;SDS011;11787;52.018;8.570;2022-12-18T05:57:46;25.88;;;13.10;;
23236;SDS011;11787;52.018;8.570;2022-12-18T06:00:12;23.88;;;13.65;;
23236;SDS011;11787;52.018;8.570;2022-12-18T06:02:38;29.27;;;14.25;;
23236;SDS011;11787;52.018;8.570;2022-12-18T06:05:04;24.75;;;13.32;;
23236;SDS011;11787;52.018;8.570;2022-12-18T06:07:30;29.02;;;14.75;;
23236;SDS011;11787;52.018;8.570;2022-12-18T06:09:55;25.40;;;13.55;;
23236;SDS011;11787;52.018;8.570;2022-12-18T06:12:21;25.35;;;13.23;;
23236;SDS011;11787;52.018;8.570;2022-12-18T06:14:46;21.90;;;12.48;;
23236;SDS011;11787;52.018;8.570;2022-12-18T06:17:12;24.23;;;12.82;;
23236;SDS011;11787;52.018;8.570;2022-12-18T06:19:37;25.00;;;13.57;;
23236;SDS011;11787;52.018;8.570;2022-12-18T06:22:03;27.30;;;13.65;;
23236;SDS011;11787;52.018;8.570;2022-12-18T06:24:29;26.13;;;13.13;;
23236;SDS011;11787;52.018;8.570;2022-12-18T06:26:55;22.65;;;12.65;;
23236;SDS011;11787;52.018;8.570;2022-12-18T06:29:20;24.75;;;12.20;;
23236;SDS011;11787;52.018;8.570;2022-12-18T06:31:46;22.63;;;12.68;;
23236;SDS011;11787;52.018;8.570;2022-12-18T06:34:11;21.05;;;11.93;;
23236;SDS011;11787;52.018;8.570;2022-12-18T06:36:37;23.67;;;12.52;;
23236;SDS011;11787;52.018;8.570;2022-12-18T06:39:02;23.02;;;12.65;;
23236;SDS011;11787;52.018;8.570;2022-12-18T06:41:28;27.38;;;12.55;;
23236;SDS011;11787;52.018;8.570;2022-12-18T06:43:54;24.27;;;12.63;;
23236;SDS011;11787;52.018;8.570;2022-12-18T06:46:19;20.50;;;12.27;;
23236;SDS011;11787;52.018;8.570;2022-12-18T06:48:49;24.65;;;12.55;;
23236;SDS011;11787;52.018;8.570;2022-12-18T06:54:37;27.33;;;13.13;;
23236;SDS011;11787;52.018;8.570;2022-12-18T06:57:02;24.83;;;12.32;;
23236;SDS011;11787;52.018;8.570;2022-12-18T06:59:28;24.40;;;13.75;;
23236;SDS011;11787;52.018;8.570;2022-12-18T07:01:54;29.58;;;14.32;;
23236;SDS011;11787;52.018;8.570;2022-12-18T07:04:19;24.25;;;14.05;;
23236;SDS011;11787;52.018;8.570;2022-12-18T07:06:45;25.55;;;13.60;;
23236;SDS011;11787;52.018;8.570;2022-12-18T07:09:10;25.35;;;13.45;;
23236;SDS011;11787;52.018;8.570;2022-12-18T07:11:36;24.90;;;13.40;;
23236;SDS011;11787;52.018;8.570;2022-12-18T07:14:01;26.15;;;13.48;;
23236;SDS011;11787;52.018;8.570;2022-12-18T07:16:27;25.02;;;12.40;;
23236;SDS011;11787;52.018;8.570;2022-12-18T07:18:56;23.10;;;12.50;;
23236;SDS011;11787;52.018;8.570;2022-12-18T07:21:23;23.98;;;12.70;;
23236;SDS011;11787;52.018;8.570;2022-12-18T07:23:49;24.67;;;13.10;;
23236;SDS011;11787;52.018;8.570;2022-12-18T07:26:17;23.35;;;12.73;;
23236;SDS011;11787;52.018;8.570;2022-12-18T07:28:44;26.42;;;13.00;;
23236;SDS011;11787;52.018;8.570;2022-12-18T07:31:14;24.08;;;12.55;;
23236;SDS011;11787;52.018;8.570;2022-12-18T07:33:41;24.65;;;12.73;;
23236;SDS011;11787;52.018;8.570;2022-12-18T07:36:08;25.88;;;13.80;;
23236;SDS011;11787;52.018;8.570;2022-12-18T07:38:35;25.63;;;12.73;;
23236;SDS011;11787;52.018;8.570;2022-12-18T07:41:01;26.30;;;14.57;;
23236;SDS011;11787;52.018;8.570;2022-12-18T07:43:31;30.60;;;15.98;;
23236;SDS011;11787;52.018;8.570;2022-12-18T07:45:57;26.45;;;15.30;;
23236;SDS011;11787;52.018;8.570;2022-12-18T07:48:23;31.98;;;15.82;;
23236;SDS011;11787;52.018;8.570;2022-12-18T07:50:48;27.38;;;13.82;;
23236;SDS011;11787;52.018;8.570;2022-12-18T07:53:14;28.67;;;14.30;;
23236;SDS011;11787;52.018;8.570;2022-12-18T07:55:40;25.83;;;14.05;;
23236;SDS011;11787;52.018;8.570;2022-12-18T07:58:06;27.88;;;15.07;;
23236;SDS011;11787;52.018;8.570;2022-12-18T08:00:33;25.30;;;13.32;;
23236;SDS011;11787;52.018;8.570;2022-12-18T08:02:59;24.42;;;13.27;;
23236;SDS011;11787;52.018;8.570;2022-12-18T08:05:24;26.05;;;13.60;;
23236;SDS011;11787;52.018;8.570;2022-12-18T08:07:50;26.00;;;13.68;;
23236;SDS011;11787;52.018;8.570;2022-12-18T08:10:16;26.30;;;13.75;;
23236;SDS011;11787;52.018;8.570;2022-12-18T08:12:42;22.08;;;12.73;;
23236;SDS011;11787;52.018;8.570;2022-12-18T08:15:07;26.20;;;13.93;;
23236;SDS011;11787;52.018;8.570;2022-12-18T08:17:33;22.35;;;13.27;;
23236;SDS011;11787;52.018;8.570;2022-12-18T08:19:59;28.70;;;14.43;;
23236;SDS011;11787;52.018;8.570;2022-12-18T08:22:24;23.85;;;12.77;;
23236;SDS011;11787;52.018;8.570;2022-12-18T08:24:50;25.30;;;13.73;;
23236;SDS011;11787;52.018;8.570;2022-12-18T08:27:16;25.63;;;14.40;;
23236;SDS011;11787;52.018;8.570;2022-12-18T08:29:41;27.00;;;14.30;;
23236;SDS011;11787;52.018;8.570;2022-12-18T08:35:29;23.98;;;13.35;;
23236;SDS011;11787;52.018;8.570;2022-12-18T08:37:54;24.15;;;12.30;;
23236;SDS011;11787;52.018;8.570;2022-12-18T08:40:20;24.55;;;12.40;;
23236;SDS011;11787;52.018;8.570;2022-12-18T08:42:45;23.42;;;12.57;;
23236;SDS011;11787;52.018;8.570;2022-12-18T08:47:58;26.50;;;12.80;;
23236;SDS011;11787;52.018;8.570;2022-12-18T08:50:24;21.38;;;12.00;;
23236;SDS011;11787;52.018;8.570;2022-12-18T08:56:12;23.10;;;11.90;;
23236;SDS011;11787;52.018;8.570;2022-12-18T08:58:39;22.13;;;11.80;;
23236;SDS011;11787;52.018;8.570;2022-12-18T09:01:06;23.88;;;12.90;;
23236;SDS011;11787;52.018;8.570;2022-12-18T09:03:36;21.38;;;12.38;;
23236;SDS011;11787;52.018;8.570;2022-12-18T09:06:03;26.67;;;14.90;;
23236;SDS011;11787;52.018;8.570;2022-12-18T09:08:29;26.48;;;13.48;;
23236;SDS011;11787;52.018;8.570;2022-12-18T09:10:55;23.13;;;12.45;;
23236;SDS011;11787;52.018;8.570;2022-12-18T09:13:21;23.55;;;11.57;;
23236;SDS011;11787;52.018;8.570;2022-12-18T09:15:48;22.92;;;12.65;;
23236;SDS011;11787;52.018;8.570;2022-12-18T09:21:39;24.25;;;11.73;;
23236;SDS011;11787;52.018;8.570;2022-12-18T09:24:05;24.10;;;12.77;;
23236;SDS011;11787;52.018;8.570;2022-12-18T09:26:31;24.90;;;12.65;;
23236;SDS011;11787;52.018;8.570;2022-12-18T09:28:57;21.60;;;10.48;;
23236;SDS011;11787;52.018;8.570;2022-12-18T09:31:23;23.70;;;11.57;;
23236;SDS011;11787;52.018;8.570;2022-12-18T09:37:11;20.52;;;11.23;;
23236;SDS011;11787;52.018;8.570;2022-12-18T09:39:36;20.38;;;10.68;;
23236;SDS011;11787;52.018;8.570;2022-12-18T09:42:03;19.85;;;11.48;;
23236;SDS011;11787;52.018;8.570;2022-12-18T09:50:48;20.70;;;11.40;;
23236;SDS011;11787;52.018;8.570;2022-12-18T09:52:46;24.27;;;11.48;;
23236;SDS011;11787;52.018;8.570;2022-12-18T09:55:23;24.35;;;12.40;;
23236;SDS011;11787;52.018;8.570;2022-12-18T09:57:55;22.27;;;12.05;;
23236;SDS011;11787;52.018;8.570;2022-12-18T10:00:27;24.60;;;12.57;;
23236;SDS011;11787;52.018;8.570;2022-12-18T10:09:16;21.98;;;12.48;;
23236;SDS011;11787;52.018;8.570;2022-12-18T10:19:53;23.17;;;12.43;;
23236;SDS011;11787;52.018;8.570;2022-12-18T10:22:57;21.83;;;12.70;;
23236;SDS011;11787;52.018;8.570;2022-12-18T10:28:36;25.05;;;11.02;;
23236;SDS011;11787;52.018;8.570;2022-12-18T10:31:07;21.90;;;11.10;;
23236;SDS011;11787;52.018;8.570;2022-12-18T10:33:48;17.48;;;9.82;;
23236;SDS011;11787;52.018;8.570;2022-12-18T10:36:14;19.13;;;10.60;;
23236;SDS011;11787;52.018;8.570;2022-12-18T10:38:40;21.10;;;10.32;;
23236;SDS011;11787;52.018;8.570;2022-12-18T10:41:08;20.05;;;11.48;;
23236;SDS011;11787;52.018;8.570;2022-12-18T10:44:12;22.27;;;10.75;;
23236;SDS011;11787;52.018;8.570;2022-12-18T10:46:43;19.75;;;10.95;;
23236;SDS011;11787;52.018;8.570;2022-12-18T10:49:21;19.75;;;10.57;;
23236;SDS011;11787;52.018;8.570;2022-12-18T10:51:50;19.67;;;11.27;;
23236;SDS011;11787;52.018;8.570;2022-12-18T10:54:18;27.40;;;14.82;;
23236;SDS011;11787;52.018;8.570;2022-12-18T10:56:47;18.65;;;10.95;;
23236;SDS011;11787;52.018;8.570;2022-12-18T11:02:35;19.15;;;10.23;;
23236;SDS011;11787;52.018;8.570;2022-12-18T11:05:04;22.35;;;11.35;;
23236;SDS011;11787;52.018;8.570;2022-12-18T11:07:54;21.83;;;10.13;;
23236;SDS011;11787;52.018;8.570;2022-12-18T11:29:09;16.02;;;9.13;;
23236;SDS011;11787;52.018;8.570;2022-12-18T11:31:40;15.07;;;9.20;;
23236;SDS011;11787;52.018;8.570;2022-12-18T11:40:18;15.82;;;9.23;;
23236;SDS011;11787;52.018;8.570;2022-12-18T11:42:54;17.27;;;9.05;;
23236;SDS011;11787;52.018;8.570;2022-12-18T11:45:34;16.52;;;8.93;;
23236;SDS011;11787;52.018;8.570;2022-12-18T11:50:48;17.23;;;9.15;;
23236;SDS011;11787;52.018;8.570;2022-12-18T11:53:16;19.40;;;9.27;;
23236;SDS011;11787;52.018;8.570;2022-12-18T11:55:50;17.98;;;9.15;;
23236;SDS011;11787;52.018;8.570;2022-12-18T12:01:50;15.38;;;8.82;;
23236;SDS011;11787;52.018;8.570;2022-12-18T12:04:45;13.65;;;8.55;;
23236;SDS011;11787;52.018;8.570;2022-12-18T12:12:59;13.18;;;8.40;;
23236;SDS011;11787;52.018;8.570;2022-12-18T12:15:58;14.00;;;8.38;;
23236;SDS011;11787;52.018;8.570;2022-12-18T12:18:32;12.90;;;7.95;;
23236;SDS011;11787;52.018;8.570;2022-12-18T12:40:20;14.63;;;8.52;;
23236;SDS011;11787;52.018;8.570;2022-12-18T12:42:51;16.95;;;9.68;;
23236;SDS011;11787;52.018;8.570;2022-12-18T12:49:00;13.52;;;7.78;;
23236;SDS011;11787;52.018;8.570;2022-12-18T12:51:30;12.85;;;8.07;;
23236;SDS011;11787;52.018;8.570;2022-12-18T12:53:59;18.00;;;9.02;;
23236;SDS011;11787;52.018;8.570;2022-12-18T12:56:32;18.55;;;12.30;;
23236;SDS011;11787;52.018;8.570;2022-12-18T13:01:54;16.85;;;10.45;;
23236;SDS011;11787;52.018;8.570;2022-12-18T13:04:47;15.38;;;9.07;;
23236;SDS011;11787;52.018;8.570;2022-12-18T13:07:24;13.23;;;8.00;;
23236;SDS011;11787;52.018;8.570;2022-12-18T13:18:19;10.90;;;7.20;;
23236;SDS011;11787;52.018;8.570;2022-12-18T13:23:30;14.48;;;7.88;;
23236;SDS011;11787;52.018;8.570;2022-12-18T13:31:10;13.10;;;7.60;;
23236;SDS011;11787;52.018;8.570;2022-12-18T13:36:46;12.45;;;8.23;;
23236;SDS011;11787;52.018;8.570;2022-12-18T13:41:44;12.20;;;7.05;;
23236;SDS011;11787;52.018;8.570;2022-12-18T13:44:23;12.82;;;8.00;;
23236;SDS011;11787;52.018;8.570;2022-12-18T13:47:24;11.00;;;6.68;;
23236;SDS011;11787;52.018;8.570;2022-12-18T13:49:58;10.50;;;7.20;;
23236;SDS011;11787;52.018;8.570;2022-12-18T13:52:25;13.05;;;6.88;;
23236;SDS011;11787;52.018;8.570;2022-12-18T13:54:59;13.25;;;7.43;;
23236;SDS011;11787;52.018;8.570;2022-12-18T13:57:30;17.17;;;9.35;;
23236;SDS011;11787;52.018;8.570;2022-12-18T13:59:57;10.77;;;6.93;;
23236;SDS011;11787;52.018;8.570;2022-12-18T14:02:24;11.05;;;7.15;;
23236;SDS011;11787;52.018;8.570;2022-12-18T14:04:52;11.57;;;7.25;;
23236;SDS011;11787;52.018;8.570;2022-12-18T14:07:22;12.95;;;7.35;;
23236;SDS011;11787;52.018;8.570;2022-12-18T14:13:16;10.65;;;7.03;;
23236;SDS011;11787;52.018;8.570;2022-12-18T14:15:53;10.40;;;6.28;;
23236;SDS011;11787;52.018;8.570;2022-12-18T14:21:00;22.35;;;8.18;;
23236;SDS011;11787;52.018;8.570;2022-12-18T14:23:38;29.10;;;10.60;;
23236;SDS011;11787;52.018;8.570;2022-12-18T14:29:28;17.27;;;9.05;;
23236;SDS011;11787;52.018;8.570;2022-12-18T14:32:05;14.90;;;8.73;;
23236;SDS011;11787;52.018;8.570;2022-12-18T14:34:31;14.40;;;8.35;;
23236;SDS011;11787;52.018;8.570;2022-12-18T14:36:57;16.20;;;9.57;;
23236;SDS011;11787;52.018;8.570;2022-12-18T14:39:22;37.53;;;17.58;;
23236;SDS011;11787;52.018;8.570;2022-12-18T14:41:50;24.17;;;11.57;;
23236;SDS011;11787;52.018;8.570;2022-12-18T14:44:16;18.42;;;10.05;;
23236;SDS011;11787;52.018;8.570;2022-12-18T14:46:43;13.73;;;9.10;;
23236;SDS011;11787;52.018;8.570;2022-12-18T14:51:52;10.13;;;6.43;;
23236;SDS011;11787;52.018;8.570;2022-12-18T14:54:19;9.57;;;6.22;;
23236;SDS011;11787;52.018;8.570;2022-12-18T14:56:47;10.73;;;6.65;;
23236;SDS011;11787;52.018;8.570;2022-12-18T14:59:23;11.38;;;8.13;;
23236;SDS011;11787;52.018;8.570;2022-12-18T15:04:29;11.32;;;6.50;;
23236;SDS011;11787;52.018;8.570;2022-12-18T15:12:46;9.38;;;6.18;;
23236;SDS011;11787;52.018;8.570;2022-12-18T15:18:04;76.63;;;34.35;;
23236;SDS011;11787;52.018;8.570;2022-12-18T15:23:54;18.67;;;11.10;;
23236;SDS011;11787;52.018;8.570;2022-12-18T15:26:20;15.18;;;7.90;;
23236;SDS011;11787;52.018;8.570;2022-12-18T15:28:50;11.75;;;7.28;;
23236;SDS011;11787;52.018;8.570;2022-12-18T15:31:30;10.85;;;7.18;;
23236;SDS011;11787;52.018;8.570;2022-12-18T15:34:33;8.50;;;5.43;;
23236;SDS011;11787;52.018;8.570;2022-12-18T15:36:51;11.63;;;6.82;;
23236;SDS011;11787;52.018;8.570;2022-12-18T15:39:17;9.05;;;5.65;;
23236;SDS011;11787;52.018;8.570;2022-12-18T15:41:42;8.00;;;5.50;;
23236;SDS011;11787;52.018;8.570;2022-12-18T15:47:50;9.15;;;5.70;;
23236;SDS011;11787;52.018;8.570;2022-12-18T15:50:16;8.35;;;5.80;;
23236;SDS011;11787;52.018;8.570;2022-12-18T15:52:43;8.43;;;5.63;;
23236;SDS011;11787;52.018;8.570;2022-12-18T15:55:14;9.55;;;5.72;;
23236;SDS011;11787;52.018;8.570;2022-12-18T15:58:00;10.70;;;5.35;;
23236;SDS011;11787;52.018;8.570;2022-12-18T16:00:26;8.65;;;5.47;;
23236;SDS011;11787;52.018;8.570;2022-12-18T16:02:52;10.60;;;6.55;;
23236;SDS011;11787;52.018;8.570;2022-12-18T16:05:18;10.32;;;7.18;;
23236;SDS011;11787;52.018;8.570;2022-12-18T16:07:46;11.50;;;7.20;;
23236;SDS011;11787;52.018;8.570;2022-12-18T16:13:34;11.32;;;6.68;;
23236;SDS011;11787;52.018;8.570;2022-12-18T16:15:59;11.98;;;6.80;;
23236;SDS011;11787;52.018;8.570;2022-12-18T16:18:25;11.43;;;6.40;;
23236;SDS011;11787;52.018;8.570;2022-12-18T16:20:50;9.80;;;6.60;;
23236;SDS011;11787;52.018;8.570;2022-12-18T16:23:16;7.93;;;5.68;;
23236;SDS011;11787;52.018;8.570;2022-12-18T16:25:42;10.45;;;6.32;;
23236;SDS011;11787;52.018;8.570;2022-12-18T16:28:07;10.48;;;6.25;;
23236;SDS011;11787;52.018;8.570;2022-12-18T16:30:33;10.82;;;5.80;;
23236;SDS011;11787;52.018;8.570;2022-12-18T16:32:58;10.20;;;6.35;;
23236;SDS011;11787;52.018;8.570;2022-12-18T16:35:25;10.75;;;6.10;;
23236;SDS011;11787;52.018;8.570;2022-12-18T16:37:51;12.73;;;6.90;;
23236;SDS011;11787;52.018;8.570;2022-12-18T16:40:17;11.65;;;6.18;;
23236;SDS011;11787;52.018;8.570;2022-12-18T16:42:44;10.27;;;6.22;;
23236;SDS011;11787;52.018;8.570;2022-12-18T16:45:12;9.98;;;6.38;;
23236;SDS011;11787;52.018;8.570;2022-12-18T16:47:39;9.15;;;6.35;;
23236;SDS011;11787;52.018;8.570;2022-12-18T16:50:05;12.35;;;6.82;;
23236;SDS011;11787;52.018;8.570;2022-12-18T16:52:32;8.77;;;6.38;;
23236;SDS011;11787;52.018;8.570;2022-12-18T16:54:58;12.75;;;6.82;;
23236;SDS011;11787;52.018;8.570;2022-12-18T16:57:23;13.82;;;7.53;;
23236;SDS011;11787;52.018;8.570;2022-12-18T16:59:49;10.75;;;6.90;;
23236;SDS011;11787;52.018;8.570;2022-12-18T17:05:37;11.70;;;7.00;;
23236;SDS011;11787;52.018;8.570;2022-12-18T17:08:02;13.63;;;7.30;;
23236;SDS011;11787;52.018;8.570;2022-12-18T17:10:28;12.20;;;7.15;;
23236;SDS011;11787;52.018;8.570;2022-12-18T17:12:53;13.82;;;8.15;;
23236;SDS011;11787;52.018;8.570;2022-12-18T17:15:19;12.25;;;7.10;;
23236;SDS011;11787;52.018;8.570;2022-12-18T17:21:06;12.85;;;7.70;;
23236;SDS011;11787;52.018;8.570;2022-12-18T17:23:33;13.10;;;7.82;;
23236;SDS011;11787;52.018;8.570;2022-12-18T17:25:59;22.50;;;12.85;;
23236;SDS011;11787;52.018;8.570;2022-12-18T17:28:25;32.33;;;17.08;;
23236;SDS011;11787;52.018;8.570;2022-12-18T17:30:52;15.27;;;9.68;;
23236;SDS011;11787;52.018;8.570;2022-12-18T17:33:18;14.32;;;8.45;;
23236;SDS011;11787;52.018;8.570;2022-12-18T17:35:44;13.70;;;8.77;;
23236;SDS011;11787;52.018;8.570;2022-12-18T17:38:10;14.77;;;8.45;;
23236;SDS011;11787;52.018;8.570;2022-12-18T17:40:36;13.00;;;7.68;;
23236;SDS011;11787;52.018;8.570;2022-12-18T17:43:02;12.65;;;7.57;;
23236;SDS011;11787;52.018;8.570;2022-12-18T17:45:28;11.20;;;6.95;;
23236;SDS011;11787;52.018;8.570;2022-12-18T17:47:53;12.65;;;7.68;;
23236;SDS011;11787;52.018;8.570;2022-12-18T17:53:41;12.63;;;7.57;;
23236;SDS011;11787;52.018;8.570;2022-12-18T17:56:08;13.60;;;8.40;;
23236;SDS011;11787;52.018;8.570;2022-12-18T17:58:37;12.85;;;7.47;;
23236;SDS011;11787;52.018;8.570;2022-12-18T18:01:03;13.57;;;7.90;;
23236;SDS011;11787;52.018;8.570;2022-12-18T18:03:31;12.65;;;7.75;;
23236;SDS011;11787;52.018;8.570;2022-12-18T18:05:58;13.77;;;7.65;;
23236;SDS011;11787;52.018;8.570;2022-12-18T18:08:25;14.75;;;7.82;;
23236;SDS011;11787;52.018;8.570;2022-12-18T18:10:51;10.93;;;7.10;;
23236;SDS011;11787;52.018;8.570;2022-12-18T18:13:18;11.60;;;7.70;;
23236;SDS011;11787;52.018;8.570;2022-12-18T18:19:25;13.60;;;7.43;;